sensor_id;sensor_type;location;lat;lon;timestamp;P1;durP1;ratioP1;P2;durP2;ratioP2
64208;SDS011;50527;52.414;13.226;2022-10-16T00:01:25;2.10;;;0.70;;
64208;SDS011;50527;52.414;13.226;2022-10-16T00:03:52;1.33;;;0.60;;
64208;SDS011;50527;52.414;13.226;2022-10-16T00:06:19;5.32;;;0.68;;
64208;SDS011;50527;52.414;13.226;2022-10-16T00:08:46;1.70;;;0.57;;
64208;SDS011;50527;52.414;13.226;2022-10-16T00:11:13;2.78;;;0.60;;
64208;SDS011;50527;52.414;13.226;2022-10-16T00:13:41;3.80;;;0.65;;
64208;SDS011;50527;52.414;13.226;2022-10-16T00:16:08;1.25;;;0.50;;
64208;SDS011;50527;52.414;13.226;2022-10-16T00:18:35;3.50;;;0.55;;
64208;SDS011;50527;52.414;13.226;2022-10-16T00:21:05;2.97;;;0.60;;
64208;SDS011;50527;52.414;13.226;2022-10-16T00:23:36;1.60;;;0.60;;
64208;SDS011;50527;52.414;13.226;2022-10-16T00:26:04;2.60;;;0.80;;
64208;SDS011;50527;52.414;13.226;2022-10-16T00:28:31;1.42;;;0.60;;
64208;SDS011;50527;52.414;13.226;2022-10-16T00:31:02;0.63;;;0.50;;
64208;SDS011;50527;52.414;13.226;2022-10-16T00:33:29;1.40;;;0.50;;
64208;SDS011;50527;52.414;13.226;2022-10-16T00:35:57;1.20;;;0.43;;
64208;SDS011;50527;52.414;13.226;2022-10-16T00:38:23;0.82;;;0.50;;
64208;SDS011;50527;52.414;13.226;2022-10-16T00:40:49;1.33;;;0.30;;
64208;SDS011;50527;52.414;13.226;2022-10-16T00:43:32;2.15;;;0.30;;
64208;SDS011;50527;52.414;13.226;2022-10-16T00:46:19;0.95;;;0.50;;
64208;SDS011;50527;52.414;13.226;2022-10-16T00:49:11;0.73;;;0.43;;
64208;SDS011;50527;52.414;13.226;2022-10-16T00:51:38;2.22;;;0.35;;
64208;SDS011;50527;52.414;13.226;2022-10-16T00:54:19;0.93;;;0.30;;
64208;SDS011;50527;52.414;13.226;2022-10-16T00:56:48;1.23;;;0.50;;
64208;SDS011;50527;52.414;13.226;2022-10-16T00:59:16;1.83;;;0.40;;
64208;SDS011;50527;52.414;13.226;2022-10-16T01:01:47;0.73;;;0.30;;
64208;SDS011;50527;52.414;13.226;2022-10-16T01:04:13;0.88;;;0.38;;
64208;SDS011;50527;52.414;13.226;2022-10-16T01:06:42;1.13;;;0.30;;
64208;SDS011;50527;52.414;13.226;2022-10-16T01:11:52;0.95;;;0.32;;
64208;SDS011;50527;52.414;13.226;2022-10-16T01:14:32;0.38;;;0.30;;
64208;SDS011;50527;52.414;13.226;2022-10-16T01:17:19;0.80;;;0.30;;
64208;SDS011;50527;52.414;13.226;2022-10-16T01:20:04;0.95;;;0.30;;
64208;SDS011;50527;52.414;13.226;2022-10-16T01:22:43;0.57;;;0.30;;
64208;SDS011;50527;52.414;13.226;2022-10-16T01:26:18;0.77;;;0.30;;
64208;SDS011;50527;52.414;13.226;2022-10-16T01:28:14;1.83;;;0.30;;
64208;SDS011;50527;52.414;13.226;2022-10-16T01:30:43;1.00;;;0.30;;
64208;SDS011;50527;52.414;13.226;2022-10-16T01:33:14;1.00;;;0.22;;
64208;SDS011;50527;52.414;13.226;2022-10-16T01:35:51;0.93;;;0.30;;
64208;SDS011;50527;52.414;13.226;2022-10-16T01:38:24;1.13;;;0.40;;
64208;SDS011;50527;52.414;13.226;2022-10-16T01:41:10;2.47;;;0.32;;
64208;SDS011;50527;52.414;13.226;2022-10-16T01:43:55;1.45;;;0.30;;
64208;SDS011;50527;52.414;13.226;2022-10-16T01:46:25;1.00;;;0.40;;
64208;SDS011;50527;52.414;13.226;2022-10-16T01:48:51;0.35;;;0.25;;
64208;SDS011;50527;52.414;13.226;2022-10-16T01:51:17;0.40;;;0.30;;
64208;SDS011;50527;52.414;13.226;2022-10-16T01:53:46;0.50;;;0.20;;
64208;SDS011;50527;52.414;13.226;2022-10-16T01:56:17;0.35;;;0.20;;
64208;SDS011;50527;52.414;13.226;2022-10-16T01:58:45;0.88;;;0.30;;
64208;SDS011;50527;52.414;13.226;2022-10-16T02:01:13;0.45;;;0.30;;
64208;SDS011;50527;52.414;13.226;2022-10-16T02:03:43;0.43;;;0.30;;
64208;SDS011;50527;52.414;13.226;2022-10-16T02:06:11;1.50;;;0.30;;
64208;SDS011;50527;52.414;13.226;2022-10-16T02:08:37;0.47;;;0.30;;
64208;SDS011;50527;52.414;13.226;2022-10-16T02:11:05;0.52;;;0.30;;
64208;SDS011;50527;52.414;13.226;2022-10-16T02:13:36;0.55;;;0.38;;
64208;SDS011;50527;52.414;13.226;2022-10-16T02:16:14;1.77;;;0.40;;
64208;SDS011;50527;52.414;13.226;2022-10-16T02:18:40;0.60;;;0.32;;
64208;SDS011;50527;52.414;13.226;2022-10-16T02:21:11;1.23;;;0.40;;
64208;SDS011;50527;52.414;13.226;2022-10-16T02:23:51;1.23;;;0.30;;
64208;SDS011;50527;52.414;13.226;2022-10-16T02:26:31;3.38;;;0.40;;
64208;SDS011;50527;52.414;13.226;2022-10-16T02:29:07;0.73;;;0.28;;
64208;SDS011;50527;52.414;13.226;2022-10-16T02:31:35;0.75;;;0.30;;
64208;SDS011;50527;52.414;13.226;2022-10-16T02:34:06;0.55;;;0.30;;
64208;SDS011;50527;52.414;13.226;2022-10-16T02:36:33;0.65;;;0.30;;
64208;SDS011;50527;52.414;13.226;2022-10-16T02:39:00;0.40;;;0.30;;
64208;SDS011;50527;52.414;13.226;2022-10-16T02:41:28;1.02;;;0.30;;
64208;SDS011;50527;52.414;13.226;2022-10-16T02:43:55;1.38;;;0.25;;
64208;SDS011;50527;52.414;13.226;2022-10-16T02:46:20;0.45;;;0.30;;
64208;SDS011;50527;52.414;13.226;2022-10-16T02:48:46;0.38;;;0.30;;
64208;SDS011;50527;52.414;13.226;2022-10-16T02:51:12;0.70;;;0.30;;
64208;SDS011;50527;52.414;13.226;2022-10-16T02:53:37;0.35;;;0.20;;
64208;SDS011;50527;52.414;13.226;2022-10-16T02:56:03;0.80;;;0.40;;
64208;SDS011;50527;52.414;13.226;2022-10-16T02:58:28;0.70;;;0.40;;
64208;SDS011;50527;52.414;13.226;2022-10-16T03:00:54;1.80;;;0.43;;
64208;SDS011;50527;52.414;13.226;2022-10-16T03:03:20;0.95;;;0.30;;
64208;SDS011;50527;52.414;13.226;2022-10-16T03:05:45;2.28;;;0.40;;
64208;SDS011;50527;52.414;13.226;2022-10-16T03:08:11;1.33;;;0.30;;
64208;SDS011;50527;52.414;13.226;2022-10-16T03:10:37;3.17;;;0.47;;
64208;SDS011;50527;52.414;13.226;2022-10-16T03:13:03;1.48;;;0.30;;
64208;SDS011;50527;52.414;13.226;2022-10-16T03:15:29;0.20;;;0.13;;
64208;SDS011;50527;52.414;13.226;2022-10-16T03:17:56;1.00;;;0.40;;
64208;SDS011;50527;52.414;13.226;2022-10-16T03:20:23;1.05;;;0.35;;
64208;SDS011;50527;52.414;13.226;2022-10-16T03:22:48;1.20;;;0.50;;
64208;SDS011;50527;52.414;13.226;2022-10-16T03:25:14;1.42;;;0.30;;
64208;SDS011;50527;52.414;13.226;2022-10-16T03:27:39;0.52;;;0.30;;
64208;SDS011;50527;52.414;13.226;2022-10-16T03:30:05;0.57;;;0.30;;
64208;SDS011;50527;52.414;13.226;2022-10-16T03:32:31;1.88;;;0.28;;
64208;SDS011;50527;52.414;13.226;2022-10-16T03:34:57;4.97;;;0.47;;
64208;SDS011;50527;52.414;13.226;2022-10-16T03:37:22;0.93;;;0.20;;
64208;SDS011;50527;52.414;13.226;2022-10-16T03:39:48;3.63;;;0.30;;
64208;SDS011;50527;52.414;13.226;2022-10-16T03:42:14;1.67;;;0.30;;
64208;SDS011;50527;52.414;13.226;2022-10-16T03:44:39;1.80;;;0.30;;
64208;SDS011;50527;52.414;13.226;2022-10-16T03:47:05;0.75;;;0.30;;
64208;SDS011;50527;52.414;13.226;2022-10-16T03:49:30;0.45;;;0.30;;
64208;SDS011;50527;52.414;13.226;2022-10-16T03:51:55;1.90;;;0.30;;
64208;SDS011;50527;52.414;13.226;2022-10-16T03:54:21;0.88;;;0.40;;
64208;SDS011;50527;52.414;13.226;2022-10-16T03:56:47;0.98;;;0.40;;
64208;SDS011;50527;52.414;13.226;2022-10-16T03:59:12;1.05;;;0.40;;
64208;SDS011;50527;52.414;13.226;2022-10-16T04:01:38;1.95;;;0.30;;
64208;SDS011;50527;52.414;13.226;2022-10-16T04:04:03;0.65;;;0.30;;
64208;SDS011;50527;52.414;13.226;2022-10-16T04:06:29;2.50;;;0.20;;
64208;SDS011;50527;52.414;13.226;2022-10-16T04:08:55;0.60;;;0.30;;
64208;SDS011;50527;52.414;13.226;2022-10-16T04:11:21;3.28;;;0.30;;
64208;SDS011;50527;52.414;13.226;2022-10-16T04:13:46;1.20;;;0.50;;
64208;SDS011;50527;52.414;13.226;2022-10-16T04:16:12;0.77;;;0.32;;
64208;SDS011;50527;52.414;13.226;2022-10-16T04:18:37;0.77;;;0.30;;
64208;SDS011;50527;52.414;13.226;2022-10-16T04:21:03;2.63;;;0.38;;
64208;SDS011;50527;52.414;13.226;2022-10-16T04:23:30;0.85;;;0.30;;
64208;SDS011;50527;52.414;13.226;2022-10-16T04:25:55;0.55;;;0.30;;
64208;SDS011;50527;52.414;13.226;2022-10-16T04:28:21;0.60;;;0.20;;
64208;SDS011;50527;52.414;13.226;2022-10-16T04:30:46;4.60;;;0.47;;
64208;SDS011;50527;52.414;13.226;2022-10-16T04:33:12;1.40;;;0.50;;
64208;SDS011;50527;52.414;13.226;2022-10-16T04:35:38;2.60;;;0.40;;
64208;SDS011;50527;52.414;13.226;2022-10-16T04:38:03;0.70;;;0.35;;
64208;SDS011;50527;52.414;13.226;2022-10-16T04:40:29;0.75;;;0.40;;
64208;SDS011;50527;52.414;13.226;2022-10-16T04:42:57;1.35;;;0.40;;
64208;SDS011;50527;52.414;13.226;2022-10-16T04:45:23;2.17;;;0.47;;
64208;SDS011;50527;52.414;13.226;2022-10-16T04:47:49;0.85;;;0.40;;
64208;SDS011;50527;52.414;13.226;2022-10-16T04:50:14;0.73;;;0.32;;
64208;SDS011;50527;52.414;13.226;2022-10-16T04:52:40;2.17;;;0.40;;
64208;SDS011;50527;52.414;13.226;2022-10-16T04:55:05;1.65;;;0.60;;
64208;SDS011;50527;52.414;13.226;2022-10-16T04:57:31;2.05;;;0.30;;
64208;SDS011;50527;52.414;13.226;2022-10-16T04:59:58;0.52;;;0.30;;
64208;SDS011;50527;52.414;13.226;2022-10-16T05:02:23;0.68;;;0.20;;
64208;SDS011;50527;52.414;13.226;2022-10-16T05:04:49;1.95;;;0.40;;
64208;SDS011;50527;52.414;13.226;2022-10-16T05:07:16;0.63;;;0.30;;
64208;SDS011;50527;52.414;13.226;2022-10-16T05:09:41;0.60;;;0.28;;
64208;SDS011;50527;52.414;13.226;2022-10-16T05:12:07;0.40;;;0.30;;
64208;SDS011;50527;52.414;13.226;2022-10-16T05:14:32;1.20;;;0.30;;
64208;SDS011;50527;52.414;13.226;2022-10-16T05:16:58;0.40;;;0.30;;
64208;SDS011;50527;52.414;13.226;2022-10-16T05:19:24;0.40;;;0.30;;
64208;SDS011;50527;52.414;13.226;2022-10-16T05:21:50;0.80;;;0.25;;
64208;SDS011;50527;52.414;13.226;2022-10-16T05:24:15;1.60;;;0.43;;
64208;SDS011;50527;52.414;13.226;2022-10-16T05:26:41;0.68;;;0.35;;
64208;SDS011;50527;52.414;13.226;2022-10-16T05:29:06;0.40;;;0.25;;
64208;SDS011;50527;52.414;13.226;2022-10-16T05:31:32;2.50;;;0.38;;
64208;SDS011;50527;52.414;13.226;2022-10-16T05:33:58;0.28;;;0.20;;
64208;SDS011;50527;52.414;13.226;2022-10-16T05:36:24;0.50;;;0.30;;
64208;SDS011;50527;52.414;13.226;2022-10-16T05:38:50;1.02;;;0.47;;
64208;SDS011;50527;52.414;13.226;2022-10-16T05:41:16;2.22;;;0.50;;
64208;SDS011;50527;52.414;13.226;2022-10-16T05:43:46;0.73;;;0.30;;
64208;SDS011;50527;52.414;13.226;2022-10-16T05:46:12;0.80;;;0.40;;
64208;SDS011;50527;52.414;13.226;2022-10-16T05:48:38;0.30;;;0.20;;
64208;SDS011;50527;52.414;13.226;2022-10-16T05:51:05;1.38;;;0.32;;
64208;SDS011;50527;52.414;13.226;2022-10-16T05:53:32;1.00;;;0.40;;
64208;SDS011;50527;52.414;13.226;2022-10-16T05:55:59;0.60;;;0.30;;
64208;SDS011;50527;52.414;13.226;2022-10-16T05:58:25;1.48;;;0.40;;
64208;SDS011;50527;52.414;13.226;2022-10-16T06:00:54;0.50;;;0.20;;
64208;SDS011;50527;52.414;13.226;2022-10-16T06:03:20;0.63;;;0.20;;
64208;SDS011;50527;52.414;13.226;2022-10-16T06:05:45;0.88;;;0.30;;
64208;SDS011;50527;52.414;13.226;2022-10-16T06:08:11;1.02;;;0.40;;
64208;SDS011;50527;52.414;13.226;2022-10-16T06:10:36;1.23;;;0.43;;
64208;SDS011;50527;52.414;13.226;2022-10-16T06:13:02;0.73;;;0.38;;
64208;SDS011;50527;52.414;13.226;2022-10-16T06:15:27;0.65;;;0.20;;
64208;SDS011;50527;52.414;13.226;2022-10-16T06:17:52;2.65;;;0.50;;
64208;SDS011;50527;52.414;13.226;2022-10-16T06:20:18;1.33;;;0.45;;
64208;SDS011;50527;52.414;13.226;2022-10-16T06:22:43;0.98;;;0.50;;
64208;SDS011;50527;52.414;13.226;2022-10-16T06:25:09;1.77;;;0.50;;
64208;SDS011;50527;52.414;13.226;2022-10-16T06:27:35;0.50;;;0.35;;
64208;SDS011;50527;52.414;13.226;2022-10-16T06:30:00;0.50;;;0.30;;
64208;SDS011;50527;52.414;13.226;2022-10-16T06:32:26;0.73;;;0.43;;
64208;SDS011;50527;52.414;13.226;2022-10-16T06:34:52;0.35;;;0.30;;
64208;SDS011;50527;52.414;13.226;2022-10-16T06:37:18;0.88;;;0.30;;
64208;SDS011;50527;52.414;13.226;2022-10-16T06:39:43;1.23;;;0.30;;
64208;SDS011;50527;52.414;13.226;2022-10-16T06:42:09;0.75;;;0.30;;
64208;SDS011;50527;52.414;13.226;2022-10-16T06:44:34;1.98;;;0.30;;
64208;SDS011;50527;52.414;13.226;2022-10-16T06:46:59;2.60;;;0.40;;
64208;SDS011;50527;52.414;13.226;2022-10-16T06:49:25;0.82;;;0.40;;
64208;SDS011;50527;52.414;13.226;2022-10-16T06:51:50;1.02;;;0.43;;
64208;SDS011;50527;52.414;13.226;2022-10-16T06:54:16;2.25;;;0.40;;
64208;SDS011;50527;52.414;13.226;2022-10-16T06:56:42;2.50;;;0.40;;
64208;SDS011;50527;52.414;13.226;2022-10-16T06:59:08;1.17;;;0.50;;
64208;SDS011;50527;52.414;13.226;2022-10-16T07:01:33;0.35;;;0.20;;
64208;SDS011;50527;52.414;13.226;2022-10-16T07:03:59;1.73;;;0.52;;
64208;SDS011;50527;52.414;13.226;2022-10-16T07:06:26;0.82;;;0.43;;
64208;SDS011;50527;52.414;13.226;2022-10-16T07:08:52;1.00;;;0.52;;
64208;SDS011;50527;52.414;13.226;2022-10-16T07:11:18;0.90;;;0.40;;
64208;SDS011;50527;52.414;13.226;2022-10-16T07:13:46;2.10;;;0.50;;
64208;SDS011;50527;52.414;13.226;2022-10-16T07:16:13;0.65;;;0.50;;
64208;SDS011;50527;52.414;13.226;2022-10-16T07:18:42;1.50;;;0.50;;
64208;SDS011;50527;52.414;13.226;2022-10-16T07:21:11;1.75;;;0.50;;
64208;SDS011;50527;52.414;13.226;2022-10-16T07:23:39;1.10;;;0.50;;
64208;SDS011;50527;52.414;13.226;2022-10-16T07:26:05;0.73;;;0.30;;
64208;SDS011;50527;52.414;13.226;2022-10-16T07:28:32;0.98;;;0.38;;
64208;SDS011;50527;52.414;13.226;2022-10-16T07:31:02;0.65;;;0.30;;
64208;SDS011;50527;52.414;13.226;2022-10-16T07:33:30;2.58;;;0.50;;
64208;SDS011;50527;52.414;13.226;2022-10-16T07:35:56;0.52;;;0.30;;
64208;SDS011;50527;52.414;13.226;2022-10-16T07:38:22;1.60;;;0.63;;
64208;SDS011;50527;52.414;13.226;2022-10-16T07:40:47;0.80;;;0.30;;
64208;SDS011;50527;52.414;13.226;2022-10-16T07:43:13;1.88;;;0.30;;
64208;SDS011;50527;52.414;13.226;2022-10-16T07:45:46;0.63;;;0.30;;
64208;SDS011;50527;52.414;13.226;2022-10-16T07:48:13;1.08;;;0.32;;
64208;SDS011;50527;52.414;13.226;2022-10-16T07:50:39;2.38;;;0.30;;
64208;SDS011;50527;52.414;13.226;2022-10-16T07:53:04;0.77;;;0.32;;
64208;SDS011;50527;52.414;13.226;2022-10-16T07:55:29;1.55;;;0.47;;
64208;SDS011;50527;52.414;13.226;2022-10-16T07:57:55;4.80;;;0.38;;
64208;SDS011;50527;52.414;13.226;2022-10-16T08:00:20;0.73;;;0.20;;
64208;SDS011;50527;52.414;13.226;2022-10-16T08:02:46;2.13;;;0.28;;
64208;SDS011;50527;52.414;13.226;2022-10-16T08:05:11;3.03;;;0.30;;
64208;SDS011;50527;52.414;13.226;2022-10-16T08:07:37;0.22;;;0.20;;
64208;SDS011;50527;52.414;13.226;2022-10-16T08:10:03;2.05;;;0.38;;
64208;SDS011;50527;52.414;13.226;2022-10-16T08:12:28;0.25;;;0.20;;
64208;SDS011;50527;52.414;13.226;2022-10-16T08:14:54;0.60;;;0.30;;
64208;SDS011;50527;52.414;13.226;2022-10-16T08:17:19;1.08;;;0.30;;
64208;SDS011;50527;52.414;13.226;2022-10-16T08:19:45;1.08;;;0.20;;
64208;SDS011;50527;52.414;13.226;2022-10-16T08:22:12;1.17;;;0.30;;
64208;SDS011;50527;52.414;13.226;2022-10-16T08:24:38;0.43;;;0.20;;
64208;SDS011;50527;52.414;13.226;2022-10-16T08:27:03;0.50;;;0.30;;
64208;SDS011;50527;52.414;13.226;2022-10-16T08:29:29;0.45;;;0.20;;
64208;SDS011;50527;52.414;13.226;2022-10-16T08:31:54;0.30;;;0.10;;
64208;SDS011;50527;52.414;13.226;2022-10-16T08:34:20;0.45;;;0.30;;
64208;SDS011;50527;52.414;13.226;2022-10-16T08:36:45;1.50;;;0.40;;
64208;SDS011;50527;52.414;13.226;2022-10-16T08:39:11;3.30;;;0.28;;
64208;SDS011;50527;52.414;13.226;2022-10-16T08:41:41;0.40;;;0.20;;
64208;SDS011;50527;52.414;13.226;2022-10-16T08:44:47;0.77;;;0.30;;
64208;SDS011;50527;52.414;13.226;2022-10-16T08:47:55;2.30;;;0.30;;
64208;SDS011;50527;52.414;13.226;2022-10-16T08:50:40;0.32;;;0.22;;
64208;SDS011;50527;52.414;13.226;2022-10-16T08:53:06;1.48;;;0.40;;
64208;SDS011;50527;52.414;13.226;2022-10-16T08:55:43;0.32;;;0.15;;
64208;SDS011;50527;52.414;13.226;2022-10-16T08:58:14;0.98;;;0.20;;
64208;SDS011;50527;52.414;13.226;2022-10-16T09:00:41;0.35;;;0.20;;
64208;SDS011;50527;52.414;13.226;2022-10-16T09:10:59;2.58;;;0.22;;
64208;SDS011;50527;52.414;13.226;2022-10-16T09:13:41;0.65;;;0.10;;
64208;SDS011;50527;52.414;13.226;2022-10-16T09:16:27;2.60;;;0.30;;
64208;SDS011;50527;52.414;13.226;2022-10-16T09:19:16;0.40;;;0.17;;
64208;SDS011;50527;52.414;13.226;2022-10-16T09:21:52;0.40;;;0.10;;
64208;SDS011;50527;52.414;13.226;2022-10-16T09:24:23;0.95;;;0.30;;
64208;SDS011;50527;52.414;13.226;2022-10-16T09:26:51;0.95;;;0.10;;
64208;SDS011;50527;52.414;13.226;2022-10-16T09:29:17;1.00;;;0.10;;
64208;SDS011;50527;52.414;13.226;2022-10-16T09:31:45;0.80;;;0.10;;
64208;SDS011;50527;52.414;13.226;2022-10-16T09:34:32;0.63;;;0.20;;
64208;SDS011;50527;52.414;13.226;2022-10-16T09:36:59;0.40;;;0.28;;
64208;SDS011;50527;52.414;13.226;2022-10-16T09:39:28;0.40;;;0.20;;
64208;SDS011;50527;52.414;13.226;2022-10-16T09:41:54;2.45;;;0.13;;
64208;SDS011;50527;52.414;13.226;2022-10-16T09:44:23;0.63;;;0.20;;
64208;SDS011;50527;52.414;13.226;2022-10-16T09:47:12;1.02;;;0.10;;
64208;SDS011;50527;52.414;13.226;2022-10-16T09:49:53;0.28;;;0.10;;
64208;SDS011;50527;52.414;13.226;2022-10-16T09:52:21;0.90;;;0.10;;
64208;SDS011;50527;52.414;13.226;2022-10-16T09:57:23;0.70;;;0.20;;
64208;SDS011;50527;52.414;13.226;2022-10-16T09:59:50;0.52;;;0.10;;
64208;SDS011;50527;52.414;13.226;2022-10-16T10:02:17;3.08;;;0.20;;
64208;SDS011;50527;52.414;13.226;2022-10-16T10:04:51;1.90;;;0.20;;
64208;SDS011;50527;52.414;13.226;2022-10-16T10:07:25;1.88;;;0.10;;
64208;SDS011;50527;52.414;13.226;2022-10-16T10:09:53;0.30;;;0.10;;
64208;SDS011;50527;52.414;13.226;2022-10-16T10:14:51;2.67;;;0.30;;
64208;SDS011;50527;52.414;13.226;2022-10-16T10:17:25;1.65;;;0.20;;
64208;SDS011;50527;52.414;13.226;2022-10-16T10:19:56;0.60;;;0.10;;
64208;SDS011;50527;52.414;13.226;2022-10-16T10:22:26;2.53;;;0.20;;
64208;SDS011;50527;52.414;13.226;2022-10-16T10:33:34;0.65;;;0.20;;
64208;SDS011;50527;52.414;13.226;2022-10-16T10:38:45;0.20;;;0.13;;
64208;SDS011;50527;52.414;13.226;2022-10-16T10:47:15;1.65;;;0.20;;
64208;SDS011;50527;52.414;13.226;2022-10-16T10:52:25;1.77;;;0.20;;
64208;SDS011;50527;52.414;13.226;2022-10-16T10:55:33;0.52;;;0.20;;
64208;SDS011;50527;52.414;13.226;2022-10-16T10:58:41;0.57;;;0.20;;
64208;SDS011;50527;52.414;13.226;2022-10-16T11:01:07;0.88;;;0.28;;
64208;SDS011;50527;52.414;13.226;2022-10-16T11:06:39;0.10;;;0.10;;
64208;SDS011;50527;52.414;13.226;2022-10-16T11:09:13;1.35;;;0.10;;
64208;SDS011;50527;52.414;13.226;2022-10-16T11:14:21;0.75;;;0.10;;
64208;SDS011;50527;52.414;13.226;2022-10-16T11:17:41;0.10;;;0.10;;
64208;SDS011;50527;52.414;13.226;2022-10-16T11:22:45;0.90;;;0.10;;
64208;SDS011;50527;52.414;13.226;2022-10-16T11:25:21;0.20;;;0.10;;
64208;SDS011;50527;52.414;13.226;2022-10-16T11:27:58;0.03;;;0.00;;
64208;SDS011;50527;52.414;13.226;2022-10-16T11:31:03;0.55;;;0.20;;
64208;SDS011;50527;52.414;13.226;2022-10-16T11:36:25;0.52;;;0.10;;
64208;SDS011;50527;52.414;13.226;2022-10-16T11:41:55;0.13;;;0.10;;
64208;SDS011;50527;52.414;13.226;2022-10-16T11:44:38;1.77;;;0.10;;
64208;SDS011;50527;52.414;13.226;2022-10-16T11:47:43;2.53;;;0.10;;
64208;SDS011;50527;52.414;13.226;2022-10-16T11:50:17;0.88;;;0.20;;
64208;SDS011;50527;52.414;13.226;2022-10-16T11:53:44;1.10;;;0.15;;
64208;SDS011;50527;52.414;13.226;2022-10-16T11:55:57;0.70;;;0.30;;
64208;SDS011;50527;52.414;13.226;2022-10-16T12:03:40;0.30;;;0.10;;
64208;SDS011;50527;52.414;13.226;2022-10-16T12:06:26;0.95;;;0.20;;
64208;SDS011;50527;52.414;13.226;2022-10-16T12:09:11;1.13;;;0.17;;
64208;SDS011;50527;52.414;13.226;2022-10-16T12:11:56;0.40;;;0.20;;
64208;SDS011;50527;52.414;13.226;2022-10-16T12:17:01;0.45;;;0.10;;
64208;SDS011;50527;52.414;13.226;2022-10-16T12:19:29;0.90;;;0.20;;
64208;SDS011;50527;52.414;13.226;2022-10-16T12:21:57;0.52;;;0.15;;
64208;SDS011;50527;52.414;13.226;2022-10-16T12:27:03;0.15;;;0.08;;
64208;SDS011;50527;52.414;13.226;2022-10-16T12:29:43;1.00;;;0.10;;
64208;SDS011;50527;52.414;13.226;2022-10-16T12:35:00;0.80;;;0.10;;
64208;SDS011;50527;52.414;13.226;2022-10-16T12:37:31;0.10;;;0.10;;
64208;SDS011;50527;52.414;13.226;2022-10-16T12:40:12;2.92;;;0.30;;
64208;SDS011;50527;52.414;13.226;2022-10-16T12:42:41;0.20;;;0.10;;
64208;SDS011;50527;52.414;13.226;2022-10-16T12:45:23;0.77;;;0.20;;
64208;SDS011;50527;52.414;13.226;2022-10-16T12:47:54;0.65;;;0.10;;
64208;SDS011;50527;52.414;13.226;2022-10-16T12:50:28;0.40;;;0.03;;
64208;SDS011;50527;52.414;13.226;2022-10-16T12:53:04;2.05;;;0.10;;
64208;SDS011;50527;52.414;13.226;2022-10-16T12:55:46;0.60;;;0.20;;
64208;SDS011;50527;52.414;13.226;2022-10-16T12:58:28;0.68;;;0.17;;
64208;SDS011;50527;52.414;13.226;2022-10-16T13:01:12;0.57;;;0.13;;
64208;SDS011;50527;52.414;13.226;2022-10-16T13:03:56;0.50;;;0.10;;
64208;SDS011;50527;52.414;13.226;2022-10-16T13:17:53;2.10;;;0.05;;
64208;SDS011;50527;52.414;13.226;2022-10-16T13:20:52;0.10;;;0.10;;
64208;SDS011;50527;52.414;13.226;2022-10-16T13:23:42;1.30;;;0.10;;
64208;SDS011;50527;52.414;13.226;2022-10-16T13:26:17;0.30;;;0.10;;
64208;SDS011;50527;52.414;13.226;2022-10-16T13:28:51;1.63;;;0.43;;
64208;SDS011;50527;52.414;13.226;2022-10-16T13:31:20;1.08;;;0.50;;
64208;SDS011;50527;52.414;13.226;2022-10-16T13:33:52;1.13;;;0.25;;
64208;SDS011;50527;52.414;13.226;2022-10-16T13:36:25;2.35;;;0.30;;
64208;SDS011;50527;52.414;13.226;2022-10-16T13:39:00;0.70;;;0.20;;
64208;SDS011;50527;52.414;13.226;2022-10-16T13:41:31;0.68;;;0.10;;
64208;SDS011;50527;52.414;13.226;2022-10-16T13:43:57;0.20;;;0.10;;
64208;SDS011;50527;52.414;13.226;2022-10-16T13:46:23;0.45;;;0.10;;
64208;SDS011;50527;52.414;13.226;2022-10-16T13:48:56;1.08;;;0.20;;
64208;SDS011;50527;52.414;13.226;2022-10-16T13:51:23;1.55;;;0.30;;
64208;SDS011;50527;52.414;13.226;2022-10-16T13:53:49;1.15;;;0.20;;
64208;SDS011;50527;52.414;13.226;2022-10-16T13:56:16;0.63;;;0.10;;
64208;SDS011;50527;52.414;13.226;2022-10-16T13:58:43;0.25;;;0.10;;
64208;SDS011;50527;52.414;13.226;2022-10-16T14:01:26;2.35;;;0.10;;
64208;SDS011;50527;52.414;13.226;2022-10-16T14:03:59;0.70;;;0.10;;
64208;SDS011;50527;52.414;13.226;2022-10-16T14:06:35;1.35;;;0.10;;
64208;SDS011;50527;52.414;13.226;2022-10-16T14:09:05;1.27;;;0.20;;
64208;SDS011;50527;52.414;13.226;2022-10-16T14:11:34;2.03;;;0.20;;
64208;SDS011;50527;52.414;13.226;2022-10-16T14:14:10;0.45;;;0.10;;
64208;SDS011;50527;52.414;13.226;2022-10-16T14:16:37;0.10;;;0.00;;
64208;SDS011;50527;52.414;13.226;2022-10-16T14:19:12;0.95;;;0.10;;
64208;SDS011;50527;52.414;13.226;2022-10-16T14:21:43;1.75;;;0.15;;
64208;SDS011;50527;52.414;13.226;2022-10-16T14:24:12;0.15;;;0.10;;
64208;SDS011;50527;52.414;13.226;2022-10-16T14:26:42;2.70;;;0.15;;
64208;SDS011;50527;52.414;13.226;2022-10-16T14:29:13;1.52;;;0.10;;
64208;SDS011;50527;52.414;13.226;2022-10-16T14:31:54;1.55;;;0.10;;
64208;SDS011;50527;52.414;13.226;2022-10-16T14:34:28;1.25;;;0.08;;
64208;SDS011;50527;52.414;13.226;2022-10-16T14:37:05;0.30;;;0.10;;
64208;SDS011;50527;52.414;13.226;2022-10-16T14:39:54;0.10;;;0.00;;
64208;SDS011;50527;52.414;13.226;2022-10-16T14:42:22;0.13;;;0.10;;
64208;SDS011;50527;52.414;13.226;2022-10-16T14:44:50;0.30;;;0.10;;
64208;SDS011;50527;52.414;13.226;2022-10-16T14:47:21;1.08;;;0.10;;
64208;SDS011;50527;52.414;13.226;2022-10-16T14:49:51;0.55;;;0.10;;
64208;SDS011;50527;52.414;13.226;2022-10-16T14:52:19;1.55;;;0.17;;
64208;SDS011;50527;52.414;13.226;2022-10-16T14:54:47;0.88;;;0.10;;
64208;SDS011;50527;52.414;13.226;2022-10-16T14:57:17;2.17;;;0.13;;
64208;SDS011;50527;52.414;13.226;2022-10-16T14:59:44;1.35;;;0.13;;
64208;SDS011;50527;52.414;13.226;2022-10-16T15:02:16;0.38;;;0.03;;
64208;SDS011;50527;52.414;13.226;2022-10-16T15:04:48;0.47;;;0.17;;
64208;SDS011;50527;52.414;13.226;2022-10-16T15:07:14;0.15;;;0.10;;
64208;SDS011;50527;52.414;13.226;2022-10-16T15:09:39;1.70;;;0.10;;
64208;SDS011;50527;52.414;13.226;2022-10-16T15:12:05;0.43;;;0.10;;
64208;SDS011;50527;52.414;13.226;2022-10-16T15:14:31;0.10;;;0.10;;
64208;SDS011;50527;52.414;13.226;2022-10-16T15:16:56;0.40;;;0.20;;
64208;SDS011;50527;52.414;13.226;2022-10-16T15:19:22;0.57;;;0.10;;
64208;SDS011;50527;52.414;13.226;2022-10-16T15:21:47;6.07;;;0.20;;
64208;SDS011;50527;52.414;13.226;2022-10-16T15:24:14;1.00;;;0.30;;
64208;SDS011;50527;52.414;13.226;2022-10-16T15:26:40;2.38;;;0.20;;
64208;SDS011;50527;52.414;13.226;2022-10-16T15:29:05;0.32;;;0.20;;
64208;SDS011;50527;52.414;13.226;2022-10-16T15:31:31;0.52;;;0.10;;
64208;SDS011;50527;52.414;13.226;2022-10-16T15:33:57;0.20;;;0.15;;
64208;SDS011;50527;52.414;13.226;2022-10-16T15:36:32;1.77;;;0.22;;
64208;SDS011;50527;52.414;13.226;2022-10-16T15:39:01;1.00;;;0.30;;
64208;SDS011;50527;52.414;13.226;2022-10-16T15:41:36;0.20;;;0.10;;
64208;SDS011;50527;52.414;13.226;2022-10-16T15:44:01;3.47;;;0.13;;
64208;SDS011;50527;52.414;13.226;2022-10-16T15:46:26;0.50;;;0.20;;
64208;SDS011;50527;52.414;13.226;2022-10-16T15:48:55;2.42;;;0.20;;
64208;SDS011;50527;52.414;13.226;2022-10-16T15:51:21;4.03;;;0.20;;
64208;SDS011;50527;52.414;13.226;2022-10-16T15:53:47;6.35;;;0.25;;
64208;SDS011;50527;52.414;13.226;2022-10-16T15:56:13;1.50;;;0.30;;
64208;SDS011;50527;52.414;13.226;2022-10-16T15:58:39;1.38;;;0.20;;
64208;SDS011;50527;52.414;13.226;2022-10-16T16:01:04;1.42;;;0.32;;
64208;SDS011;50527;52.414;13.226;2022-10-16T16:03:31;1.38;;;0.30;;
64208;SDS011;50527;52.414;13.226;2022-10-16T16:05:57;1.58;;;0.40;;